Lima, OH (45807)

2:06 PM EDT on September 28, 2016 (GMT -0400)
northwest lima | | Change Station

Elev 879 ft 40.75 °N, 84.13 °W | Updated 37 minutes ago

Light Rain
Light Rain
61.3 °F
Feels Like 61.3 °F
N
5.3
Wind Variable Wind from SSE

Today
High -- | Low -- °F
--% Chance of Precip.
Yesterday
High -- | Low -- °F
Precip. -- in
Pressure 29.86 in
Visibility 10.0 miles
Clouds Scattered Clouds 1600 ft
Overcast 2600 ft
Dew Point 53 °F
Humidity 73%
Rainfall 0.20 in
Snow Depth Not available.
7:30 AM 7:22 PM
Waning Crescent, 5% visible
METAR KAOH 281753Z AUTO 19006KT 10SM -RA SCT016 OVC026 16/13 A2986 RMK AO2 RAB41 SLP112 P0000 60002 T01560133 10161 20117 51009
Pressure 29.86 in
Visibility 10.0 miles
Clouds Scattered Clouds 1600 ft
Overcast 2600 ft
Dew Point 53 °F
Humidity 73%
Rainfall 0.20 in
Snow Depth Not available.
7:30 AM 7:22 PM
Waning Crescent, 5% visible
METAR KAOH 281753Z AUTO 19006KT 10SM -RA SCT016 OVC026 16/13 A2986 RMK AO2 RAB41 SLP112 P0000 60002 T01560133 10161 20117 51009

10-Day Weather Forecast

Almanac

Astronomy

Sep. 28, 2016 Rise Set
Actual Time
Civil Twilight
Nautical Twilight
Astronomical Twilight
Moon
Length of Visible Light
Length of Day
Tomorrow will be .
, % of the Moon is Illuminated

Today's Extremes

State Highs State Lows

Community

WunderPhotos

Upload Photos

1,942,294 photos uploaded!

WunderBlog® & News

Nearby

Air Quality

  Air Quality AQ Index Pollutant
Not available.

Snow Depth

Station Depth Elevation

Earthquake Activity

City Distance Mag. Time & Date
Minimum magnitude displayed is 2.5.

Coastal Water Temperatures

Place Temperature

Stations

Nearby Weather Stations

Station Location Temp. Windchill Dew Point Humidity Wind Precip. Elev Updated Type
                   

Watches & Warnings

There are currently no watches in effect.